Time;durP1;ratioP1;P1;durP2;ratioP2;P2;SDS_P1;SDS_P2;PMS_P1;PMS_P2;Temp;Humidity;BMP_temperature;BMP_pressure;BME280_temperature;BME280_humidity;BME280_pressure;Samples;Min_cycle;Max_cycle;Signal;HPM_P1;HPM_P2
2023/01/02 00:00:31;;;;;;;6.97;3.00;;;14.10;1.00;;;;;;4840858;29;20310;-85
2023/01/02 00:02:57;;;;;;;11.03;3.50;;;14.10;1.00;;;;;;4841994;29;20198;-85
2023/01/02 00:05:23;;;;;;;7.73;3.00;;;14.20;1.00;;;;;;4844936;29;20533;-87
2023/01/02 00:07:56;;;;;;;7.40;3.30;;;14.30;1.00;;;;;;4839351;29;20196;-87
2023/01/02 00:10:22;;;;;;;8.70;3.33;;;14.40;99.90;;;;;;4842168;29;20219;-86
2023/01/02 00:12:48;;;;;;;11.70;3.67;;;14.40;99.90;;;;;;4839034;29;20544;-87
2023/01/02 00:15:16;;;;;;;10.60;3.80;;;14.50;99.90;;;;;;4850689;29;20582;-86
2023/01/02 00:17:45;;;;;;;6.37;3.00;;;14.50;59.50;;;;;;4844129;29;20228;-87
2023/01/02 00:20:17;;;;;;;5.53;3.23;;;14.50;96.60;;;;;;4619189;29;6489377;-87
2023/01/02 00:22:48;;;;;;;7.27;3.30;;;14.50;99.90;;;;;;4849951;29;20190;-87
2023/01/02 00:25:17;;;;;;;5.33;3.40;;;14.50;99.90;;;;;;4843369;29;20528;-87
2023/01/02 00:27:42;;;;;;;5.13;3.20;;;14.40;1.00;;;;;;4844314;29;20440;-87
2023/01/02 00:30:08;;;;;;;12.10;3.97;;;14.40;1.00;;;;;;4839015;29;20543;-87
2023/01/02 00:32:34;;;;;;;9.20;3.47;;;14.40;1.00;;;;;;4848133;29;20188;-87
2023/01/02 00:34:59;;;;;;;9.63;3.93;;;14.30;1.00;;;;;;4839347;29;21094;-87
2023/01/02 00:37:25;;;;;;;13.03;3.60;;;14.30;79.00;;;;;;4837282;29;20266;-87
2023/01/02 00:39:51;;;;;;;9.40;4.40;;;14.20;99.90;;;;;;4837620;29;20220;-87
2023/01/02 00:42:34;;;;;;;7.20;3.60;;;14.20;99.90;;;;;;4841071;29;20251;-87
2023/01/02 00:45:05;;;;;;;11.17;3.63;;;14.20;99.90;;;;;;4834893;29;20246;-86
2023/01/02 00:47:31;;;;;;;6.77;3.10;;;14.20;99.90;;;;;;4852905;29;20962;-86
2023/01/02 00:50:05;;;;;;;12.17;4.07;;;14.20;99.90;;;;;;4843987;29;20592;-86
2023/01/02 00:52:42;;;;;;;12.70;3.97;;;14.10;99.90;;;;;;4841528;29;20213;-86
2023/01/02 00:55:24;;;;;;;11.97;4.23;;;14.10;99.90;;;;;;4841536;29;20459;-86
2023/01/02 00:57:50;;;;;;;6.90;3.60;;;14.10;99.90;;;;;;4846257;29;20449;-86
2023/01/02 01:00:25;;;;;;;7.00;4.27;;;14.10;99.90;;;;;;4848764;29;20489;-86
2023/01/02 01:03:05;;;;;;;7.77;3.87;;;14.00;99.90;;;;;;4840992;29;20190;-86
2023/01/02 01:05:30;;;;;;;6.80;4.77;;;14.00;99.90;;;;;;4846179;29;20454;-86
2023/01/02 01:08:05;;;;;;;8.43;3.43;;;14.00;99.90;;;;;;4837779;29;20440;-85
2023/01/02 01:10:31;;;;;;;6.70;3.90;;;13.90;99.90;;;;;;4851590;29;20216;-86
2023/01/02 01:13:15;;;;;;;13.70;5.43;;;13.90;99.90;;;;;;4841302;29;20536;-86
2023/01/02 01:15:40;;;;;;;9.93;3.67;;;13.90;99.90;;;;;;4845238;29;20455;-86
2023/01/02 01:18:06;;;;;;;13.90;4.17;;;13.90;99.90;;;;;;4862204;29;20445;-86
2023/01/02 01:20:31;;;;;;;12.07;3.60;;;14.00;99.90;;;;;;4856635;29;20287;-86
2023/01/02 01:22:57;;;;;;;8.70;4.00;;;14.00;99.90;;;;;;4846119;29;20203;-86
2023/01/02 01:25:31;;;;;;;7.63;4.00;;;14.00;99.90;;;;;;4842253;29;20226;-86
2023/01/02 01:28:08;;;;;;;8.63;3.97;;;14.00;99.90;;;;;;4846405;29;20656;-86
2023/01/02 01:30:34;;;;;;;5.40;3.67;;;14.00;99.90;;;;;;4844558;29;20477;-87
2023/01/02 01:32:59;;;;;;;9.70;3.60;;;14.00;99.90;;;;;;4853592;29;20465;-87
2023/01/02 01:35:25;;;;;;;7.90;3.70;;;14.00;99.90;;;;;;4844447;29;20213;-86
2023/01/02 01:37:51;;;;;;;6.77;3.93;;;14.00;99.90;;;;;;4844828;29;20197;-87
2023/01/02 01:40:16;;;;;;;6.50;3.27;;;14.00;99.90;;;;;;4849268;29;20720;-86
2023/01/02 01:42:42;;;;;;;6.87;3.90;;;14.10;99.90;;;;;;4844603;29;20604;-86
2023/01/02 01:45:20;;;;;;;8.00;4.10;;;14.10;99.90;;;;;;4843315;29;20679;-87
2023/01/02 01:47:52;;;;;;;12.33;3.20;;;14.10;99.90;;;;;;4838401;29;20328;-87
2023/01/02 01:50:33;;;;;;;9.67;2.83;;;14.10;99.90;;;;;;4849714;29;21127;-87
2023/01/02 01:53:24;;;;;;;8.50;4.13;;;14.10;99.90;;;;;;4852779;29;20449;-86
2023/01/02 01:56:04;;;;;;;11.43;3.20;;;14.20;99.90;;;;;;4838993;29;20459;-87
2023/01/02 01:58:35;;;;;;;7.70;3.30;;;14.20;99.90;;;;;;4841916;29;20450;-87
2023/01/02 02:01:01;;;;;;;10.27;3.60;;;14.20;99.90;;;;;;4843062;29;21210;-87
2023/01/02 02:03:29;;;;;;;10.93;3.77;;;14.20;99.90;;;;;;4841823;29;21004;-87
2023/01/02 02:06:09;;;;;;;6.67;3.27;;;14.20;99.90;;;;;;4851916;29;20450;-87
2023/01/02 02:08:51;;;;;;;7.57;4.10;;;14.20;67.70;;;;;;4847613;29;20815;-87
2023/01/02 02:11:38;;;;;;;;;;;;;;;;;;;;;
2023/01/02 02:14:09;;;;;;;5.67;3.20;;;14.20;14.00;;;;;;4838845;29;20454;-86
2023/01/02 02:17:36;;;;;;;13.90;4.20;;;14.20;1.00;;;;;;4858711;29;20549;-87
2023/01/02 02:20:35;;;;;;;10.97;3.67;;;14.20;1.00;;;;;;4823185;29;20515;-87
2023/01/02 02:23:40;;;;;;;;;;;;;;;;;;;;;
2023/01/02 02:26:45;;;;;;;10.03;4.73;;;14.20;1.00;;;;;;4845700;29;20455;-87
2023/01/02 02:29:34;;;;;;;10.53;4.13;;;14.20;99.90;;;;;;4863355;29;20814;-87
2023/01/02 02:32:06;;;;;;;7.90;4.10;;;14.10;99.90;;;;;;4836636;29;20878;-87
2023/01/02 02:35:02;;;;;;;7.43;3.47;;;14.00;99.90;;;;;;4849839;29;20456;-86
2023/01/02 02:37:58;;;;;;;14.17;4.60;;;13.90;99.90;;;;;;4854686;29;20452;-86
2023/01/02 02:40:52;;;;;;;13.43;4.10;;;13.90;99.90;;;;;;4865895;29;20482;-87
2023/01/02 02:43:50;;;;;;;13.70;3.80;;;13.80;99.90;;;;;;4859639;29;20466;-85
2023/01/02 02:46:49;;;;;;;8.00;3.87;;;13.80;99.90;;;;;;4841284;29;20458;-87
2023/01/02 02:49:42;;;;;;;7.97;4.63;;;13.80;1.00;;;;;;4865259;29;20463;-86
2023/01/02 02:52:14;;;;;;;15.27;5.23;;;13.70;1.00;;;;;;4842604;29;20464;-86
2023/01/02 02:55:16;;;;;;;11.73;3.93;;;13.70;1.00;;;;;;4831589;29;20455;-85
2023/01/02 02:57:43;;;;;;;10.40;5.80;;;13.70;1.00;;;;;;4860340;29;20449;-86
2023/01/02 03:00:14;;;;;;;15.50;4.17;;;13.70;1.00;;;;;;4845958;29;20486;-86
2023/01/02 03:02:42;;;;;;;8.60;4.30;;;13.60;1.00;;;;;;4839040;29;20433;-87
2023/01/02 03:05:24;;;;;;;17.63;4.63;;;13.60;1.00;;;;;;4841939;29;20438;-87
2023/01/02 03:08:15;;;;;;;11.30;4.53;;;13.60;1.00;;;;;;4843527;29;20515;-87
2023/01/02 03:10:57;;;;;;;11.97;4.70;;;13.60;1.00;;;;;;4841396;29;20468;-87
2023/01/02 03:13:32;;;;;;;13.30;4.90;;;13.50;1.00;;;;;;4853217;29;20555;-88
2023/01/02 03:16:17;;;;;;;11.13;5.50;;;13.40;1.00;;;;;;4842166;29;20437;-88
2023/01/02 03:19:37;;;;;;;10.23;5.00;;;13.30;1.00;;;;;;4843421;29;20480;-87
2023/01/02 03:22:36;;;;;;;10.00;5.83;;;13.20;1.00;;;;;;4835214;29;20512;-88
2023/01/02 03:25:16;;;;;;;10.03;5.00;;;13.20;1.00;;;;;;4843487;29;20452;-89
2023/01/02 03:27:45;;;;;;;12.97;5.80;;;13.10;1.00;;;;;;4840912;29;20442;-88
2023/01/02 03:30:30;;;;;;;13.20;6.00;;;13.10;1.00;;;;;;4851302;29;20494;-88
2023/01/02 03:33:27;;;;;;;17.23;6.03;;;13.10;1.00;;;;;;4855651;29;20961;-89
2023/01/02 03:36:15;;;;;;;9.33;5.93;;;13.00;1.00;;;;;;4846253;29;20864;-88
2023/01/02 03:38:54;;;;;;;12.83;6.10;;;13.00;1.00;;;;;;4836629;29;20473;-86
2023/01/02 03:41:45;;;;;;;12.63;6.63;;;13.00;1.00;;;;;;4853399;29;20478;-89
2023/01/02 03:44:11;;;;;;;15.97;5.63;;;13.00;1.00;;;;;;4844572;29;20446;-89
2023/01/02 03:47:13;;;;;;;8.90;5.30;;;13.00;1.00;;;;;;4862833;29;20436;-89
2023/01/02 03:50:21;;;;;;;12.33;6.20;;;13.00;1.00;;;;;;4846214;29;20449;-89
2023/01/02 03:52:57;;;;;;;15.63;6.70;;;13.00;1.00;;;;;;4849750;29;20443;-89
2023/01/02 03:58:57;;;;;;;15.97;6.90;;;13.00;1.00;;;;;;4856352;29;20500;-89
2023/01/02 04:01:58;;;;;;;8.63;5.47;;;13.00;1.00;;;;;;4835871;29;20558;-89
2023/01/02 04:04:53;;;;;;;16.43;6.13;;;12.90;1.00;;;;;;4829576;29;20835;-89
2023/01/02 04:07:33;;;;;;;12.97;6.10;;;12.90;1.00;;;;;;4825845;29;20561;-90
2023/01/02 04:10:00;;;;;;;12.43;6.10;;;12.90;1.00;;;;;;4844344;29;20914;-89
2023/01/02 04:12:43;;;;;;;12.60;5.90;;;12.90;1.00;;;;;;4859296;29;20452;-88
2023/01/02 04:15:11;;;;;;;15.20;6.00;;;12.90;1.00;;;;;;4842348;29;20449;-90
2023/01/02 04:18:25;;;;;;;9.30;5.97;;;12.90;1.00;;;;;;4853421;29;20441;-90
2023/01/02 04:20:57;;;;;;;10.53;5.00;;;13.00;1.00;;;;;;4848840;29;20997;-89
2023/01/02 04:23:41;;;;;;;14.57;5.70;;;13.00;1.00;;;;;;4842917;29;20506;-89
2023/01/02 04:26:15;;;;;;;6.53;5.40;;;13.00;1.00;;;;;;4838774;29;20669;-89
2023/01/02 04:28:40;;;;;;;15.77;5.83;;;13.00;1.00;;;;;;4841840;29;20461;-90
2023/01/02 04:31:16;;;;;;;9.33;5.50;;;13.00;1.00;;;;;;4841351;29;20798;-89
2023/01/02 04:33:50;;;;;;;6.53;4.20;;;13.00;1.00;;;;;;4837878;29;20202;-90
2023/01/02 04:36:16;;;;;;;9.37;4.80;;;13.10;1.00;;;;;;4849725;29;20454;-90
2023/01/02 04:39:03;;;;;;;6.53;3.80;;;13.10;1.00;;;;;;4847906;29;20494;-90
2023/01/02 04:41:40;;;;;;;9.77;4.77;;;13.10;1.00;;;;;;4850689;29;21003;-89
2023/01/02 04:44:06;;;;;;;7.30;3.07;;;13.20;1.00;;;;;;4846430;29;20446;-90
2023/01/02 04:46:51;;;;;;;7.63;3.80;;;13.20;1.00;;;;;;4847715;29;20470;-89
2023/01/02 04:52:12;;;;;;;7.97;3.70;;;13.20;1.00;;;;;;4705302;27;20535;-90
2023/01/02 04:54:41;;;;;;;8.57;3.60;;;13.30;1.00;;;;;;4858778;29;20433;-90
2023/01/02 04:57:35;;;;;;;5.73;3.40;;;13.30;1.00;;;;;;4867354;29;20448;-88
2023/01/02 05:00:03;;;;;;;8.13;4.10;;;13.30;1.00;;;;;;4857190;29;20654;-89
2023/01/02 05:02:49;;;;;;;;;;;;;;;;;;;;;
2023/01/02 05:05:47;;;;;;;4.60;3.20;;;13.40;1.00;;;;;;4847096;29;20449;-89
2023/01/02 05:08:43;;;;;;;6.90;3.10;;;13.40;1.00;;;;;;4845420;29;20446;-88
2023/01/02 05:11:38;;;;;;;9.23;2.93;;;13.30;1.00;;;;;;4858035;29;20473;-90
2023/01/02 05:14:16;;;;;;;6.70;3.30;;;13.40;1.00;;;;;;4848601;29;20549;-89
2023/01/02 05:17:29;;;;;;;7.77;4.50;;;13.40;1.00;;;;;;4838597;29;20875;-89
2023/01/02 05:20:08;;;;;;;8.17;3.50;;;13.40;1.00;;;;;;4843655;29;20478;-90
2023/01/02 05:25:47;;;;;;;6.00;3.37;;;13.30;1.00;;;;;;4860637;29;21054;-90
2023/01/02 05:28:26;;;;;;;6.50;3.40;;;13.30;1.00;;;;;;4843923;29;20970;-90
2023/01/02 05:31:10;;;;;;;11.03;3.27;;;13.30;1.00;;;;;;4844472;29;20482;-90
2023/01/02 05:33:43;;;;;;;4.73;2.80;;;13.30;1.00;;;;;;4847832;29;20433;-90
2023/01/02 05:36:09;;;;;;;11.50;3.70;;;13.30;1.00;;;;;;4852082;29;21023;-89
2023/01/02 05:38:40;;;;;;;5.10;2.87;;;13.20;1.00;;;;;;4843140;29;20465;-89
2023/01/02 05:41:15;;;;;;;12.83;4.00;;;13.20;1.00;;;;;;4848131;29;20281;-90
2023/01/02 05:43:44;;;;;;;8.27;3.37;;;13.20;1.00;;;;;;4846581;29;20523;-89
2023/01/02 05:46:39;;;;;;;7.70;3.17;;;13.20;1.00;;;;;;4847854;29;20526;-90
2023/01/02 05:49:10;;;;;;;4.40;2.83;;;13.10;1.00;;;;;;4843804;29;20468;-90
2023/01/02 05:51:46;;;;;;;4.17;2.80;;;13.10;1.00;;;;;;4845587;29;20544;-89
2023/01/02 05:54:22;;;;;;;6.23;3.17;;;13.10;1.00;;;;;;4843351;29;20493;-89
2023/01/02 05:57:06;;;;;;;5.93;3.63;;;13.00;1.00;;;;;;4856756;29;20436;-89
2023/01/02 05:59:50;;;;;;;11.43;3.03;;;13.00;1.00;;;;;;4856912;29;20469;-89
2023/01/02 06:02:46;;;;;;;;;;;;;;;;;;;;;
2023/01/02 06:08:51;;;;;;;5.87;3.40;;;12.90;1.00;;;;;;4857174;29;20463;-90
2023/01/02 06:11:35;;;;;;;6.60;2.37;;;12.90;1.00;;;;;;4854213;29;20461;-88
2023/01/02 06:22:09;;;;;;;4.10;2.83;;;12.90;1.00;;;;;;4863358;23;20566;-88
2023/01/02 06:24:59;;;;;;;5.67;2.80;;;12.90;1.00;;;;;;4852214;29;20445;-88
2023/01/02 06:27:52;;;;;;;5.13;3.00;;;12.90;1.00;;;;;;4855462;29;20451;-89
2023/01/02 06:31:04;;;;;;;9.50;3.73;;;12.90;1.00;;;;;;4827453;29;20492;-88
2023/01/02 06:33:48;;;;;;;;;;;;;;;;;;;;;
2023/01/02 06:36:34;;;;;;;6.50;2.77;;;12.90;1.00;;;;;;4843144;29;20453;-88
2023/01/02 06:39:15;;;;;;;5.93;2.93;;;12.90;1.00;;;;;;4841771;29;20503;-88
2023/01/02 06:41:43;;;;;;;6.97;2.60;;;12.90;1.00;;;;;;4843893;29;20996;-88
2023/01/02 06:44:54;;;;;;;;;;;;;;;;;;;;;
2023/01/02 06:48:16;;;;;;;5.73;2.93;;;12.90;1.00;;;;;;4845336;29;20449;-88
2023/01/02 06:51:36;;;;;;;5.50;2.80;;;12.90;1.00;;;;;;4846339;29;20565;-88
2023/01/02 06:54:28;;;;;;;5.87;2.50;;;12.90;1.00;;;;;;4847535;29;20530;-88
2023/01/02 07:00:44;;;;;;;10.07;3.00;;;12.90;1.00;;;;;;4841892;29;20461;-88
2023/01/02 07:03:20;;;;;;;4.67;3.17;;;12.90;1.00;;;;;;4844867;29;20445;-88
2023/01/02 07:06:26;;;;;;;3.53;2.53;;;12.90;1.00;;;;;;4855741;29;20559;-88
2023/01/02 07:09:38;;;;;;;5.43;2.70;;;12.80;1.00;;;;;;4835868;29;20476;-89
2023/01/02 07:12:10;;;;;;;4.13;2.80;;;12.80;1.00;;;;;;4842293;29;21027;-89
2023/01/02 07:15:19;;;;;;;5.30;2.67;;;12.80;1.00;;;;;;4845598;29;20449;-89
2023/01/02 07:18:17;;;;;;;6.60;3.33;;;12.70;1.00;;;;;;4841910;29;20453;-88
2023/01/02 07:21:31;;;;;;;12.70;3.23;;;12.70;1.00;;;;;;4837819;29;20480;-89
2023/01/02 07:24:31;;;;;;;7.37;2.80;;;12.70;1.00;;;;;;4847993;29;20502;-88
2023/01/02 07:27:38;;;;;;;6.20;3.20;;;12.60;1.00;;;;;;4852160;29;20536;-88
2023/01/02 07:30:10;;;;;;;9.33;3.20;;;12.60;1.00;;;;;;4839939;29;20812;-89
2023/01/02 07:32:38;;;;;;;8.90;3.60;;;12.60;1.00;;;;;;4857444;29;20508;-88
2023/01/02 07:35:04;;;;;;;7.30;3.27;;;12.60;1.00;;;;;;4842577;29;20477;-88
2023/01/02 07:37:32;;;;;;;7.90;2.77;;;12.60;1.00;;;;;;4845981;29;20497;-88
2023/01/02 07:39:58;;;;;;;6.23;2.73;;;12.70;1.00;;;;;;4851261;29;20489;-88
2023/01/02 07:42:26;;;;;;;5.67;2.90;;;12.70;1.00;;;;;;4842317;29;20947;-88
2023/01/02 07:44:51;;;;;;;6.50;2.90;;;12.70;1.00;;;;;;4843656;29;20219;-88
2023/01/02 07:47:17;;;;;;;6.27;3.00;;;12.70;1.00;;;;;;4843326;29;20477;-87
2023/01/02 07:49:42;;;;;;;8.50;2.90;;;12.70;1.00;;;;;;4856004;29;20201;-88
2023/01/02 07:52:09;;;;;;;8.37;3.63;;;12.70;1.00;;;;;;4849121;29;20185;-88
2023/01/02 07:54:35;;;;;;;5.13;3.10;;;12.70;1.00;;;;;;4841368;29;20194;-89
2023/01/02 07:57:01;;;;;;;5.37;3.20;;;12.70;1.00;;;;;;4838917;29;20476;-88
2023/01/02 07:59:27;;;;;;;3.60;2.83;;;12.60;1.00;;;;;;4847850;29;20685;-88
2023/01/02 08:01:55;;;;;;;7.57;4.00;;;12.60;1.00;;;;;;4859801;29;20239;-88
2023/01/02 08:04:24;;;;;;;6.07;3.80;;;12.60;1.00;;;;;;4842189;29;20521;-87
2023/01/02 08:06:52;;;;;;;6.63;2.90;;;12.60;1.00;;;;;;4844846;29;20441;-87
2023/01/02 08:09:17;;;;;;;6.93;2.97;;;12.60;1.00;;;;;;4845293;29;20472;-88
2023/01/02 08:11:46;;;;;;;4.00;2.70;;;12.60;1.00;;;;;;4844701;29;20453;-87
2023/01/02 08:14:11;;;;;;;5.13;3.03;;;12.60;1.00;;;;;;4848491;29;20699;-88
2023/01/02 08:16:37;;;;;;;8.30;3.37;;;12.60;1.00;;;;;;4839937;29;20445;-87
2023/01/02 08:19:03;;;;;;;4.90;3.10;;;12.60;1.00;;;;;;4836212;29;20587;-88
2023/01/02 08:21:28;;;;;;;7.63;3.67;;;12.60;1.00;;;;;;4832668;29;20668;-86
2023/01/02 08:23:54;;;;;;;9.50;3.10;;;12.60;1.00;;;;;;4844816;29;20188;-87
2023/01/02 08:26:20;;;;;;;10.57;3.40;;;12.70;1.00;;;;;;4847743;29;20185;-88
2023/01/02 08:28:45;;;;;;;5.87;2.80;;;12.70;1.00;;;;;;4840623;29;20216;-87
2023/01/02 08:31:18;;;;;;;12.10;3.27;;;12.70;1.00;;;;;;4839967;29;20485;-87
2023/01/02 08:33:45;;;;;;;3.97;2.53;;;12.70;1.00;;;;;;4848339;29;20242;-87
2023/01/02 08:36:11;;;;;;;4.17;3.53;;;12.80;1.00;;;;;;4839376;29;20518;-88
2023/01/02 08:38:37;;;;;;;7.13;3.10;;;12.80;1.00;;;;;;4839061;29;20452;-88
2023/01/02 08:41:02;;;;;;;6.23;3.13;;;12.70;1.00;;;;;;4843457;29;20474;-87
2023/01/02 08:44:03;;;;;;;6.80;3.40;;;12.70;1.00;;;;;;4845653;29;20268;-89
2023/01/02 08:46:30;;;;;;;6.33;2.83;;;12.60;1.00;;;;;;4847412;29;20850;-87
2023/01/02 08:48:56;;;;;;;4.20;3.20;;;12.50;1.00;;;;;;4838848;29;20454;-86
2023/01/02 08:51:25;;;;;;;6.47;3.00;;;12.40;1.00;;;;;;4840991;29;20453;-87
2023/01/02 08:53:51;;;;;;;3.40;2.40;;;12.30;1.00;;;;;;4840720;29;20478;-87
2023/01/02 08:56:24;;;;;;;3.73;2.30;;;12.20;1.00;;;;;;4847277;29;20890;-87
2023/01/02 08:58:50;;;;;;;1.93;1.67;;;12.20;1.00;;;;;;4840327;29;20232;-87
2023/01/02 09:01:16;;;;;;;1.60;1.50;;;12.20;1.00;;;;;;4839556;29;20488;-87
2023/01/02 09:03:41;;;;;;;6.23;1.73;;;12.10;1.00;;;;;;4844299;29;21388;-88
2023/01/02 09:06:07;;;;;;;2.13;1.40;;;12.20;1.00;;;;;;4831538;29;20666;-87
2023/01/02 09:08:32;;;;;;;1.43;1.33;;;12.10;1.00;;;;;;4832482;29;20284;-87
2023/01/02 09:10:58;;;;;;;3.07;1.73;;;12.20;1.00;;;;;;4832289;29;20637;-87
2023/01/02 09:13:23;;;;;;;2.33;1.80;;;12.20;1.00;;;;;;4839211;29;20701;-88
2023/01/02 09:15:49;;;;;;;2.83;2.10;;;12.20;1.00;;;;;;4841609;29;20280;-88
2023/01/02 09:18:14;;;;;;;2.83;2.60;;;12.20;1.00;;;;;;4841999;29;20262;-87
2023/01/02 09:20:40;;;;;;;6.20;2.80;;;12.20;1.00;;;;;;4840719;29;20263;-88
2023/01/02 09:23:06;;;;;;;2.90;2.37;;;12.30;1.00;;;;;;4831431;29;20247;-88
2023/01/02 09:25:31;;;;;;;6.63;3.57;;;12.30;1.00;;;;;;4838887;29;20192;-89
2023/01/02 09:27:57;;;;;;;5.30;3.33;;;12.30;1.00;;;;;;4836417;29;20197;-88
2023/01/02 09:30:22;;;;;;;5.47;3.20;;;12.30;1.00;;;;;;4842356;29;20236;-88
2023/01/02 09:32:49;;;;;;;5.47;3.00;;;12.40;1.00;;;;;;4835359;29;20275;-89
2023/01/02 09:35:15;;;;;;;6.47;3.70;;;12.50;1.00;;;;;;4846175;29;20589;-89
2023/01/02 09:37:41;;;;;;;6.50;3.60;;;12.40;1.00;;;;;;4845305;29;20444;-89
2023/01/02 09:40:07;;;;;;;4.90;3.10;;;12.40;1.00;;;;;;4840650;29;20482;-88
2023/01/02 09:42:33;;;;;;;5.40;3.50;;;12.40;1.00;;;;;;4841082;29;20653;-89
2023/01/02 09:45:03;;;;;;;4.93;3.27;;;12.40;1.00;;;;;;4838271;29;20482;-89
2023/01/02 09:47:32;;;;;;;5.60;3.40;;;12.40;1.00;;;;;;4848733;29;20658;-89
2023/01/02 09:50:04;;;;;;;6.07;3.70;;;12.30;1.00;;;;;;4856165;29;20444;-90
2023/01/02 09:52:35;;;;;;;5.60;3.03;;;12.30;1.00;;;;;;4864548;29;20428;-89
2023/01/02 09:55:02;;;;;;;4.27;3.03;;;12.20;1.00;;;;;;4857501;29;20833;-89
2023/01/02 09:57:27;;;;;;;5.20;3.43;;;12.20;1.00;;;;;;4844928;29;20462;-89
2023/01/02 10:00:17;;;;;;;5.87;3.37;;;12.20;1.00;;;;;;4843492;29;20478;-89
2023/01/02 10:03:10;;;;;;;4.40;3.20;;;12.20;1.00;;;;;;4839903;29;20196;-89
2023/01/02 10:06:04;;;;;;;5.10;3.20;;;12.30;1.00;;;;;;4843591;29;20416;-90
2023/01/02 10:09:10;;;;;;;4.10;3.30;;;12.40;99.90;;;;;;4842553;29;20834;-89
2023/01/02 10:11:44;;;;;;;5.30;3.27;;;12.40;99.90;;;;;;4844352;29;20446;-89
2023/01/02 10:14:38;;;;;;;5.37;3.23;;;12.50;99.90;;;;;;4832367;29;20434;-89
2023/01/02 10:17:07;;;;;;;8.10;4.27;;;12.50;99.90;;;;;;4844578;29;20445;-89
2023/01/02 10:20:03;;;;;;;4.77;3.27;;;12.50;99.90;;;;;;4849872;29;20454;-89
2023/01/02 10:22:49;;;;;;;6.77;4.07;;;12.50;99.90;;;;;;4839542;29;20454;-89
2023/01/02 10:25:32;;;;;;;6.90;3.97;;;12.40;99.90;;;;;;4841146;29;20454;-88
2023/01/02 10:28:17;;;;;;;6.07;4.23;;;12.40;99.90;;;;;;4849252;29;20440;-89
2023/01/02 10:30:49;;;;;;;6.10;3.80;;;12.30;99.90;;;;;;4844330;29;20457;-88
2023/01/02 10:33:23;;;;;;;8.47;4.37;;;12.30;99.90;;;;;;4840510;29;20469;-89
2023/01/02 10:35:55;;;;;;;6.60;4.57;;;12.30;99.90;;;;;;4849689;29;20441;-88
2023/01/02 10:38:34;;;;;;;6.63;4.43;;;12.30;1.00;;;;;;4842577;29;20441;-88
2023/01/02 10:41:00;;;;;;;6.00;4.30;;;12.20;1.00;;;;;;4844019;29;21170;-85
2023/01/02 10:43:25;;;;;;;6.50;4.67;;;12.20;1.00;;;;;;4854550;29;20510;-86
2023/01/02 10:45:51;;;;;;;6.53;4.67;;;12.10;1.00;;;;;;4846926;29;20663;-85
2023/01/02 10:48:20;;;;;;;8.50;5.30;;;12.10;1.00;;;;;;4856420;29;20185;-86
2023/01/02 10:50:50;;;;;;;7.80;5.00;;;12.10;1.00;;;;;;4841647;29;20305;-85
2023/01/02 10:53:58;;;;;;;5.60;4.03;;;12.40;1.00;;;;;;4837244;29;20450;-87
2023/01/02 10:56:24;;;;;;;8.47;5.33;;;12.60;99.90;;;;;;4858458;29;20480;-86
2023/01/02 10:58:50;;;;;;;7.73;5.70;;;12.90;99.90;;;;;;4837055;29;20464;-86
2023/01/02 11:01:20;;;;;;;8.20;5.37;;;13.00;99.90;;;;;;4843412;29;20213;-86
2023/01/02 11:03:47;;;;;;;7.60;5.03;;;13.00;99.90;;;;;;4837904;29;20454;-86
2023/01/02 11:06:30;;;;;;;7.60;4.70;;;13.00;99.90;;;;;;4841641;29;20450;-86
2023/01/02 11:09:16;;;;;;;7.60;5.27;;;12.90;99.90;;;;;;4842385;29;20466;-86
2023/01/02 11:11:50;;;;;;;6.73;5.00;;;12.80;99.90;;;;;;4840251;29;20449;-87
2023/01/02 11:14:15;;;;;;;6.03;4.70;;;12.80;99.90;;;;;;4861850;29;21082;-86
2023/01/02 11:16:43;;;;;;;7.00;4.87;;;12.70;99.90;;;;;;4838369;29;20536;-84
2023/01/02 11:19:18;;;;;;;8.20;5.40;;;12.60;99.90;;;;;;4840225;29;20208;-85
2023/01/02 11:21:45;;;;;;;6.23;4.77;;;12.60;99.90;;;;;;4837795;29;20847;-86
2023/01/02 11:24:15;;;;;;;6.57;4.80;;;12.60;99.90;;;;;;4854328;29;20470;-87
2023/01/02 11:26:43;;;;;;;8.67;5.67;;;12.50;1.00;;;;;;4841814;29;21082;-86
2023/01/02 11:29:17;;;;;;;10.90;7.10;;;12.50;1.00;;;;;;4840385;29;20473;-85
2023/01/02 11:31:50;;;;;;;12.23;7.30;;;12.40;1.00;;;;;;4832116;29;20453;-85
2023/01/02 11:34:22;;;;;;;9.63;7.10;;;12.30;1.00;;;;;;4832333;29;20453;-86
2023/01/02 11:37:01;;;;;;;9.40;6.30;;;12.20;1.00;;;;;;4844332;29;20448;-86
2023/01/02 11:39:27;;;;;;;13.60;8.43;;;12.10;1.00;;;;;;4849497;29;20461;-85
2023/01/02 11:45:04;;;;;;;8.87;5.83;;;12.00;1.00;;;;;;4840023;29;20469;-86
2023/01/02 11:47:41;;;;;;;9.10;5.17;;;12.00;1.00;;;;;;4846056;29;20484;-87
2023/01/02 11:50:09;;;;;;;8.77;5.30;;;11.90;1.00;;;;;;4845757;29;20477;-86
2023/01/02 11:52:42;;;;;;;8.40;6.60;;;12.00;1.00;;;;;;4846786;29;20437;-85
2023/01/02 11:55:17;;;;;;;10.10;6.30;;;12.10;1.00;;;;;;4851273;29;20993;-85
2023/01/02 11:57:48;;;;;;;10.43;6.97;;;12.60;1.00;;;;;;4837403;29;20441;-87
2023/01/02 12:00:17;;;;;;;11.60;7.10;;;13.00;99.90;;;;;;4848221;29;20474;-85
2023/01/02 12:02:52;;;;;;;10.57;6.57;;;13.40;99.90;;;;;;4850029;29;20437;-85
2023/01/02 12:05:51;;;;;;;10.60;5.80;;;13.70;1.00;;;;;;4836225;29;20456;-86
2023/01/02 12:08:35;;;;;;;7.70;5.63;;;13.90;99.90;;;;;;4836834;29;20509;-85
2023/01/02 12:11:33;;;;;;;7.93;5.03;;;14.00;1.00;;;;;;4837118;29;20457;-85
2023/01/02 12:14:05;;;;;;;8.90;5.37;;;13.90;99.90;;;;;;4834930;29;20452;-84
2023/01/02 12:16:33;;;;;;;8.80;5.80;;;13.70;1.00;;;;;;4839873;29;20447;-84
2023/01/02 12:19:34;;;;;;;7.80;5.97;;;13.50;1.00;;;;;;4838854;29;20523;-84
2023/01/02 12:22:12;;;;;;;8.00;5.90;;;13.40;99.90;;;;;;4839634;29;20490;-84
2023/01/02 12:24:55;;;;;;;10.40;6.00;;;13.30;1.00;;;;;;4841046;29;20449;-84
2023/01/02 12:27:39;;;;;;;7.17;5.00;;;13.50;99.90;;;;;;4850563;29;20949;-86
2023/01/02 12:30:12;;;;;;;7.10;5.47;;;13.70;99.90;;;;;;4840803;29;20478;-85
2023/01/02 12:32:47;;;;;;;7.20;5.37;;;13.70;1.00;;;;;;4835795;29;20968;-86
2023/01/02 12:35:36;;;;;;;6.00;5.10;;;13.70;99.90;;;;;;4839516;29;20505;-86
2023/01/02 12:38:05;;;;;;;7.53;5.03;;;13.60;99.90;;;;;;4844760;29;20452;-86
2023/01/02 12:40:43;;;;;;;6.50;4.93;;;13.50;99.90;;;;;;4844758;29;20491;-86
2023/01/02 12:43:40;;;;;;;8.77;5.90;;;13.50;99.90;;;;;;4837263;29;21005;-85
2023/01/02 12:46:28;;;;;;;6.37;4.87;;;13.40;99.90;;;;;;4838363;29;20492;-85
2023/01/02 12:49:12;;;;;;;9.90;6.20;;;13.30;1.00;;;;;;4836881;29;20564;-86
2023/01/02 12:52:12;;;;;;;7.60;5.13;;;13.20;6.00;;;;;;4856704;29;20439;-86
2023/01/02 12:54:51;;;;;;;6.00;4.60;;;13.20;44.20;;;;;;4848588;29;20976;-86
2023/01/02 12:57:38;;;;;;;5.93;4.90;;;13.10;99.90;;;;;;4845430;29;20454;-86
2023/01/02 13:00:24;;;;;;;7.73;5.97;;;13.10;99.90;;;;;;4838639;29;21001;-86
2023/01/02 13:03:09;;;;;;;9.53;5.27;;;13.00;1.00;;;;;;4839206;29;20492;-85
2023/01/02 13:05:43;;;;;;;7.50;5.20;;;12.90;1.00;;;;;;4847935;29;20435;-85
2023/01/02 13:08:25;;;;;;;7.53;4.97;;;12.90;1.00;;;;;;4855643;29;20460;-85
2023/01/02 13:10:53;;;;;;;6.80;4.80;;;12.80;1.00;;;;;;4836610;29;20450;-86
2023/01/02 13:13:21;;;;;;;8.53;4.90;;;12.70;1.00;;;;;;4844938;29;21065;-86
2023/01/02 13:15:53;;;;;;;7.60;5.50;;;12.70;65.60;;;;;;4845609;29;20457;-85
2023/01/02 13:18:38;;;;;;;6.77;4.90;;;12.70;99.90;;;;;;4845210;29;20828;-86
2023/01/02 13:21:08;;;;;;;7.63;5.00;;;12.70;99.90;;;;;;4854885;29;20539;-86
2023/01/02 13:23:43;;;;;;;6.20;4.53;;;12.70;99.90;;;;;;4858554;29;20440;-86
2023/01/02 13:26:17;;;;;;;7.33;5.23;;;12.70;99.90;;;;;;4865036;29;20438;-87
2023/01/02 13:29:01;;;;;;;4.13;3.53;;;12.70;99.90;;;;;;4862226;29;20541;-86
2023/01/02 13:31:31;;;;;;;4.67;4.10;;;12.70;13.90;;;;;;4845503;29;20456;-85
2023/01/02 13:34:07;;;;;;;5.50;4.40;;;12.70;1.00;;;;;;4843950;29;20792;-85
2023/01/02 13:36:43;;;;;;;5.47;4.40;;;12.70;1.00;;;;;;4843725;29;20614;-84
2023/01/02 13:39:38;;;;;;;4.40;3.67;;;12.70;1.00;;;;;;4843203;29;20475;-85
2023/01/02 13:46:12;;;;;;;;;;;;;;;;;;;;;
2023/01/02 13:49:03;;;;;;;4.53;4.13;;;12.40;1.00;;;;;;4842451;29;20441;-85
2023/01/02 13:51:34;;;;;;;4.33;3.70;;;12.40;1.00;;;;;;4851228;29;20509;-85
2023/01/02 13:54:08;;;;;;;8.30;4.67;;;12.40;1.00;;;;;;4839564;29;20536;-85
2023/01/02 13:57:12;;;;;;;7.37;4.27;;;12.30;1.00;;;;;;4844879;29;20440;-85
2023/01/02 14:00:01;;;;;;;4.10;3.53;;;12.20;1.00;;;;;;4842704;29;20948;-84
2023/01/02 14:02:28;;;;;;;4.20;3.10;;;12.20;89.50;;;;;;4850022;29;20426;-84
2023/01/02 14:04:53;;;;;;;4.20;3.80;;;12.10;98.80;;;;;;4841815;29;20430;-85
2023/01/02 14:07:25;;;;;;;6.03;4.10;;;12.10;99.90;;;;;;4832131;29;20445;-85
2023/01/02 14:10:18;;;;;;;3.77;3.47;;;12.10;99.90;;;;;;4843243;29;20204;-85
2023/01/02 14:13:00;;;;;;;4.73;2.50;;;12.00;99.90;;;;;;4846798;29;20976;-85
2023/01/02 14:15:26;;;;;;;3.93;2.80;;;12.00;99.90;;;;;;4826289;29;21002;-85
2023/01/02 14:18:04;;;;;;;4.00;2.90;;;11.90;99.90;;;;;;4841664;29;20982;-84
2023/01/02 14:20:34;;;;;;;3.03;2.50;;;11.80;99.90;;;;;;4845686;29;20515;-84
2023/01/02 14:23:08;;;;;;;4.37;3.07;;;11.80;99.90;;;;;;4843546;29;20446;-85
2023/01/02 14:25:47;;;;;;;4.70;3.10;;;11.80;99.90;;;;;;4847750;29;20445;-85